createdAt,value
2017-12-15T00:00:00.203Z,0.00
2017-12-15T00:01:00.187Z,0.00
2017-12-15T00:02:00.171Z,0.00
2017-12-15T00:03:00.155Z,0.00
2017-12-15T00:04:00.140Z,0.00
2017-12-15T00:05:00.124Z,0.00
2017-12-15T00:06:00.110Z,0.00
2017-12-15T00:07:00.096Z,0.00
2017-12-15T00:08:00.080Z,0.00
2017-12-15T00:09:00.063Z,0.00
2017-12-15T00:10:00.050Z,0.00
2017-12-15T00:11:00.035Z,0.00
2017-12-15T00:12:00.018Z,0.00
2017-12-15T00:13:00.003Z,0.00
2017-12-15T00:13:59.988Z,0.00
2017-12-15T00:14:59.973Z,0.00
2017-12-15T00:15:59.957Z,0.00
2017-12-15T00:16:59.941Z,0.00
2017-12-15T00:17:59.926Z,0.00
2017-12-15T00:18:59.911Z,0.00
2017-12-15T00:19:59.896Z,0.00
2017-12-15T00:20:59.882Z,0.00
2017-12-15T00:21:59.865Z,0.00
2017-12-15T00:22:59.850Z,0.00
2017-12-15T00:23:59.834Z,0.00
2017-12-15T00:24:59.819Z,0.00
2017-12-15T00:25:59.803Z,0.00
2017-12-15T00:26:59.788Z,0.00
2017-12-15T00:27:59.774Z,0.00
2017-12-15T00:28:59.757Z,0.00
2017-12-15T00:29:59.742Z,0.00
2017-12-15T00:30:59.727Z,0.00
2017-12-15T00:31:59.713Z,0.00
2017-12-15T00:32:59.696Z,0.00
2017-12-15T00:33:59.680Z,0.00
2017-12-15T00:34:59.665Z,0.00
2017-12-15T00:35:59.652Z,0.00
2017-12-15T00:36:59.634Z,0.00
2017-12-15T00:37:59.620Z,0.00
2017-12-15T00:38:59.604Z,0.00
2017-12-15T00:39:59.589Z,0.00
2017-12-15T00:40:59.574Z,0.00
2017-12-15T00:41:59.557Z,0.00
2017-12-15T00:42:59.543Z,0.00
2017-12-15T00:43:59.528Z,0.00
2017-12-15T00:44:59.511Z,0.00
2017-12-15T00:45:59.495Z,0.00
2017-12-15T00:46:59.481Z,0.00
2017-12-15T00:47:59.465Z,0.00
2017-12-15T00:48:59.449Z,0.00
2017-12-15T00:49:59.434Z,0.00
2017-12-15T00:50:59.419Z,0.00
2017-12-15T00:51:59.403Z,0.00
2017-12-15T00:52:59.388Z,0.00
2017-12-15T00:53:59.372Z,0.00
2017-12-15T00:54:59.358Z,0.00
2017-12-15T00:55:59.348Z,0.00
2017-12-15T00:56:59.327Z,0.00
2017-12-15T00:57:59.317Z,0.00
2017-12-15T00:58:59.297Z,0.00
2017-12-15T00:59:59.280Z,0.00
2017-12-15T01:00:59.263Z,0.00
2017-12-15T01:01:59.248Z,0.00
2017-12-15T01:02:59.233Z,0.00
2017-12-15T01:03:59.217Z,0.00
2017-12-15T01:04:59.202Z,0.00
2017-12-15T01:05:59.188Z,0.00
2017-12-15T01:06:59.172Z,0.00
2017-12-15T01:07:59.157Z,0.00
2017-12-15T01:08:59.141Z,0.00
2017-12-15T01:09:59.126Z,0.00
2017-12-15T01:10:59.110Z,0.00
2017-12-15T01:11:59.096Z,0.00
2017-12-15T01:12:59.078Z,0.00
2017-12-15T01:13:59.063Z,0.00
2017-12-15T01:14:59.049Z,0.00
2017-12-15T01:15:59.034Z,0.00
2017-12-15T01:16:59.018Z,0.00
2017-12-15T01:17:59.002Z,0.00
2017-12-15T01:18:58.986Z,0.00
2017-12-15T01:19:58.971Z,0.00
2017-12-15T01:20:58.956Z,0.00
2017-12-15T01:21:58.940Z,0.00
2017-12-15T01:22:58.924Z,0.00
2017-12-15T01:23:58.909Z,0.00
2017-12-15T01:24:58.894Z,0.00
2017-12-15T01:25:58.879Z,0.00
2017-12-15T01:26:58.863Z,0.00
2017-12-15T01:27:58.849Z,0.00
2017-12-15T01:28:58.832Z,0.00
2017-12-15T01:29:58.817Z,0.00
2017-12-15T01:30:58.800Z,0.00
2017-12-15T01:31:58.786Z,0.00
2017-12-15T01:32:58.769Z,0.00
2017-12-15T01:33:58.754Z,0.00
2017-12-15T01:34:58.738Z,0.00
2017-12-15T01:35:58.743Z,0.00
2017-12-15T01:36:58.708Z,0.00
2017-12-15T01:37:58.692Z,0.00
2017-12-15T01:38:58.677Z,0.00
2017-12-15T01:39:58.662Z,0.00
2017-12-15T01:40:58.646Z,0.00
2017-12-15T01:41:58.630Z,0.00
2017-12-15T01:42:58.616Z,0.00
2017-12-15T01:43:58.600Z,0.00
2017-12-15T01:44:58.586Z,0.00
2017-12-15T01:45:58.568Z,0.00
2017-12-15T01:46:58.554Z,0.00
2017-12-15T01:47:58.538Z,0.00
2017-12-15T01:48:58.523Z,0.00
2017-12-15T01:49:58.511Z,0.00
2017-12-15T01:50:58.496Z,0.00
2017-12-15T01:51:58.476Z,0.00
2017-12-15T01:52:58.460Z,0.00
2017-12-15T01:53:58.445Z,0.00
2017-12-15T01:54:58.429Z,0.00
2017-12-15T01:55:58.415Z,0.00
2017-12-15T01:56:58.399Z,0.00
2017-12-15T01:57:58.385Z,0.00
2017-12-15T01:58:58.373Z,0.00
2017-12-15T01:59:58.353Z,0.00
2017-12-15T02:00:58.336Z,0.00
2017-12-15T02:01:58.330Z,0.00
2017-12-15T02:02:58.307Z,0.00
2017-12-15T02:03:58.291Z,0.00
2017-12-15T02:04:58.275Z,0.00
2017-12-15T02:05:58.260Z,0.00
2017-12-15T02:06:58.244Z,0.00
2017-12-15T02:07:58.228Z,0.00
2017-12-15T02:08:58.212Z,0.00
2017-12-15T02:09:58.197Z,0.00
2017-12-15T02:10:58.182Z,0.00
2017-12-15T02:11:58.167Z,0.00
2017-12-15T02:12:58.151Z,0.00
2017-12-15T02:13:58.138Z,0.00
2017-12-15T02:14:58.123Z,0.00
2017-12-15T02:15:58.105Z,0.00
2017-12-15T02:16:58.088Z,0.00
2017-12-15T02:17:58.072Z,0.00
2017-12-15T02:18:58.058Z,0.00
2017-12-15T02:19:58.042Z,0.00
2017-12-15T02:20:58.025Z,0.00
2017-12-15T02:21:58.010Z,0.00
2017-12-15T02:22:57.996Z,0.00
2017-12-15T02:23:57.980Z,0.00
2017-12-15T02:24:57.963Z,0.00
2017-12-15T02:25:57.948Z,0.00
2017-12-15T02:26:57.933Z,0.00
2017-12-15T02:27:57.918Z,0.00
2017-12-15T02:28:57.903Z,0.00
2017-12-15T02:29:57.885Z,0.00
2017-12-15T02:30:57.870Z,0.00
2017-12-15T02:31:57.856Z,0.00
2017-12-15T02:32:57.839Z,0.00
2017-12-15T02:33:57.824Z,0.00
2017-12-15T02:34:57.808Z,0.00
2017-12-15T02:35:57.793Z,0.00
2017-12-15T02:36:57.777Z,0.00
2017-12-15T02:37:57.762Z,0.00
2017-12-15T02:38:57.748Z,0.00
2017-12-15T02:39:57.734Z,0.00
2017-12-15T02:40:57.722Z,0.00
2017-12-15T02:41:57.700Z,0.00
2017-12-15T02:42:57.682Z,0.00
2017-12-15T02:43:57.668Z,0.00
2017-12-15T02:44:57.651Z,0.00
2017-12-15T02:45:57.638Z,0.00
2017-12-15T02:46:57.622Z,0.00
2017-12-15T02:47:57.605Z,0.00
2017-12-15T02:48:57.590Z,0.00
2017-12-15T02:49:57.574Z,0.00
2017-12-15T02:50:57.562Z,0.00
2017-12-15T02:51:57.544Z,0.00
2017-12-15T02:52:57.526Z,0.00
2017-12-15T02:53:57.511Z,0.00
2017-12-15T02:54:57.497Z,0.00
2017-12-15T02:55:57.481Z,0.00
2017-12-15T02:56:57.464Z,0.00
2017-12-15T02:57:57.448Z,0.00
2017-12-15T02:58:57.434Z,0.00
2017-12-15T02:59:57.418Z,0.00
2017-12-15T03:00:57.402Z,0.00
2017-12-15T03:01:57.387Z,0.00
2017-12-15T03:02:57.371Z,0.00
2017-12-15T03:03:57.355Z,0.00
2017-12-15T03:04:57.339Z,0.00
2017-12-15T03:05:57.324Z,0.00
2017-12-15T03:06:57.308Z,0.00
2017-12-15T03:07:57.294Z,0.00
2017-12-15T03:08:57.286Z,0.00
2017-12-15T03:09:57.261Z,0.00
2017-12-15T03:10:57.253Z,0.00
2017-12-15T03:11:57.231Z,0.00
2017-12-15T03:12:57.214Z,0.00
2017-12-15T03:13:57.199Z,0.00
2017-12-15T03:14:57.183Z,0.00
2017-12-15T03:15:57.168Z,0.00
2017-12-15T03:16:57.151Z,0.00
2017-12-15T03:17:57.136Z,0.00
2017-12-15T03:18:57.121Z,0.00
2017-12-15T03:19:57.103Z,0.00
2017-12-15T03:20:57.087Z,0.00
2017-12-15T03:21:57.076Z,0.00
2017-12-15T03:22:57.056Z,0.00
2017-12-15T03:23:57.042Z,0.00
2017-12-15T03:24:57.025Z,0.00
2017-12-15T03:25:57.008Z,0.00
2017-12-15T03:26:56.995Z,0.00
2017-12-15T03:27:56.978Z,0.00
2017-12-15T03:28:56.968Z,0.00
2017-12-15T03:29:56.946Z,0.00
2017-12-15T03:30:56.933Z,0.00
2017-12-15T03:31:56.915Z,0.00
2017-12-15T03:32:56.902Z,0.00
2017-12-15T03:33:56.883Z,0.00
2017-12-15T03:34:56.869Z,0.00
2017-12-15T03:35:56.851Z,0.00
2017-12-15T03:36:56.892Z,0.00
2017-12-15T03:37:56.819Z,0.00
2017-12-15T03:38:56.804Z,0.00
2017-12-15T03:39:56.788Z,0.00
2017-12-15T03:40:56.773Z,0.00
2017-12-15T03:41:56.756Z,0.00
2017-12-15T03:42:56.742Z,0.00
2017-12-15T03:43:56.725Z,0.00
2017-12-15T03:44:56.708Z,0.00
2017-12-15T03:45:56.693Z,0.00
2017-12-15T03:46:56.679Z,0.00
2017-12-15T03:47:56.662Z,0.00
2017-12-15T03:48:56.645Z,0.00
2017-12-15T03:49:56.629Z,0.00
2017-12-15T03:50:56.614Z,0.00
2017-12-15T03:51:56.599Z,0.00
2017-12-15T03:52:56.582Z,0.00
2017-12-15T03:53:56.567Z,0.00
2017-12-15T03:54:56.557Z,0.00
2017-12-15T03:55:56.536Z,0.00
2017-12-15T03:56:56.520Z,0.00
2017-12-15T03:57:56.503Z,0.00
2017-12-15T03:58:56.488Z,0.00
2017-12-15T03:59:56.472Z,0.00
2017-12-15T04:00:56.457Z,0.00
2017-12-15T04:01:56.441Z,0.00
2017-12-15T04:02:56.425Z,0.00
2017-12-15T04:03:56.409Z,0.00
2017-12-15T04:04:56.392Z,0.00
2017-12-15T04:05:56.377Z,0.00
2017-12-15T04:06:56.361Z,0.00
2017-12-15T04:07:56.345Z,0.00
2017-12-15T04:08:56.332Z,0.00
2017-12-15T04:09:56.315Z,0.00
2017-12-15T04:10:56.298Z,0.00
2017-12-15T04:11:56.283Z,0.00
2017-12-15T04:12:56.266Z,0.00
2017-12-15T04:13:56.251Z,0.00
2017-12-15T04:14:56.235Z,0.00
2017-12-15T04:15:56.226Z,0.00
2017-12-15T04:16:56.202Z,0.00
2017-12-15T04:17:56.188Z,0.00
2017-12-15T04:18:56.172Z,0.00
2017-12-15T04:19:56.156Z,0.00
2017-12-15T04:20:56.141Z,0.00
2017-12-15T04:21:56.124Z,0.00
2017-12-15T04:22:56.112Z,0.00
2017-12-15T04:23:56.094Z,0.00
2017-12-15T04:24:56.090Z,0.00
2017-12-15T04:25:56.061Z,0.00
2017-12-15T04:26:56.046Z,0.00
2017-12-15T04:27:56.030Z,0.00
2017-12-15T04:28:56.014Z,0.00
2017-12-15T04:29:55.999Z,0.00
2017-12-15T04:30:55.983Z,0.00
2017-12-15T04:31:55.967Z,0.00
2017-12-15T04:32:55.951Z,0.00
2017-12-15T04:33:55.937Z,0.00
2017-12-15T04:34:55.919Z,0.00
2017-12-15T04:35:55.906Z,0.00
2017-12-15T04:36:55.888Z,0.00
2017-12-15T04:37:55.874Z,0.00
2017-12-15T04:38:55.859Z,0.00
2017-12-15T04:39:55.843Z,0.00
2017-12-15T04:40:55.826Z,0.00
2017-12-15T04:41:55.811Z,0.00
2017-12-15T04:42:55.796Z,0.00
2017-12-15T04:43:55.781Z,0.00
2017-12-15T04:44:55.763Z,0.00
2017-12-15T04:45:55.749Z,0.00
2017-12-15T04:46:55.733Z,0.00
2017-12-15T04:47:55.718Z,0.00
2017-12-15T04:48:55.701Z,0.00
2017-12-15T04:49:55.685Z,0.00
2017-12-15T04:50:55.670Z,0.00
2017-12-15T04:51:55.655Z,0.00
2017-12-15T04:52:55.640Z,0.00
2017-12-15T04:53:55.626Z,0.00
2017-12-15T04:54:55.608Z,0.00
2017-12-15T04:55:55.594Z,0.00
2017-12-15T04:56:55.577Z,0.00
2017-12-15T04:57:55.561Z,0.00
2017-12-15T04:58:55.546Z,0.00
2017-12-15T04:59:55.531Z,0.00
2017-12-15T05:00:55.515Z,0.00
2017-12-15T05:01:55.499Z,0.00
2017-12-15T05:02:55.485Z,0.00
2017-12-15T05:03:55.469Z,0.00
2017-12-15T05:04:55.452Z,0.00
2017-12-15T05:05:55.437Z,0.00
2017-12-15T05:06:55.421Z,0.00
2017-12-15T05:07:55.408Z,0.00
2017-12-15T05:08:55.391Z,0.00
2017-12-15T05:09:55.378Z,0.00
2017-12-15T05:10:55.360Z,0.00
2017-12-15T05:11:55.346Z,0.00
2017-12-15T05:12:55.328Z,0.00
2017-12-15T05:13:55.313Z,0.00
2017-12-15T05:14:55.299Z,0.00
2017-12-15T05:15:55.283Z,0.00
2017-12-15T05:16:55.266Z,0.00
2017-12-15T05:17:55.252Z,0.00
2017-12-15T05:18:55.236Z,0.00
2017-12-15T05:19:55.221Z,0.00
2017-12-15T05:20:55.206Z,0.00
2017-12-15T05:21:55.191Z,0.00
2017-12-15T05:22:55.175Z,0.00
2017-12-15T05:23:55.159Z,0.00
2017-12-15T05:24:55.143Z,0.00
2017-12-15T05:25:55.127Z,0.00
2017-12-15T05:26:55.112Z,0.00
2017-12-15T05:27:55.098Z,0.00
2017-12-15T05:28:55.081Z,0.00
2017-12-15T05:29:55.066Z,0.00
2017-12-15T05:30:55.051Z,0.00
2017-12-15T05:31:55.035Z,0.00
2017-12-15T05:32:55.019Z,0.00
2017-12-15T05:33:55.005Z,0.00
2017-12-15T05:34:54.989Z,0.00
2017-12-15T05:35:54.975Z,0.00
2017-12-15T05:36:54.958Z,0.00
2017-12-15T05:37:54.943Z,0.00
2017-12-15T05:38:54.928Z,0.00
2017-12-15T05:39:54.912Z,0.00
2017-12-15T05:40:54.899Z,0.00
2017-12-15T05:41:54.881Z,0.00
2017-12-15T05:42:54.866Z,0.00
2017-12-15T05:43:54.851Z,0.00
2017-12-15T05:44:54.836Z,0.00
2017-12-15T05:45:54.820Z,0.00
2017-12-15T05:46:54.806Z,0.00
2017-12-15T05:47:54.790Z,0.00
2017-12-15T05:48:54.772Z,0.00
2017-12-15T05:49:54.759Z,0.00
2017-12-15T05:50:54.744Z,0.00
2017-12-15T05:51:54.728Z,0.00
2017-12-15T05:52:54.711Z,0.00
2017-12-15T05:53:54.699Z,0.00
2017-12-15T05:54:54.682Z,0.00
2017-12-15T05:55:54.668Z,0.00
2017-12-15T05:56:54.650Z,0.00
2017-12-15T05:57:54.636Z,0.00
2017-12-15T05:58:54.620Z,0.00
2017-12-15T05:59:54.604Z,0.00
2017-12-15T06:00:54.589Z,0.00
2017-12-15T06:01:54.572Z,0.00
2017-12-15T06:02:54.557Z,0.00
2017-12-15T06:03:54.545Z,0.00
2017-12-15T06:04:54.529Z,0.00
2017-12-15T06:05:54.511Z,0.00
2017-12-15T06:06:54.497Z,0.00
2017-12-15T06:07:54.481Z,0.00
2017-12-15T06:08:54.464Z,0.00
2017-12-15T06:09:54.451Z,0.00
2017-12-15T06:10:54.435Z,0.00
2017-12-15T06:11:54.419Z,0.00
2017-12-15T06:12:54.404Z,0.00
2017-12-15T06:13:54.389Z,0.00
2017-12-15T06:14:54.374Z,0.00
2017-12-15T06:15:54.359Z,0.00
2017-12-15T06:16:54.342Z,0.00
2017-12-15T06:17:54.328Z,0.00
2017-12-15T06:18:54.313Z,0.00
2017-12-15T06:19:54.301Z,0.00
2017-12-15T06:20:54.282Z,0.00
2017-12-15T06:21:54.266Z,0.00
2017-12-15T06:22:54.251Z,0.00
2017-12-15T06:23:54.237Z,0.00
2017-12-15T06:24:54.221Z,0.00
2017-12-15T06:25:54.206Z,0.00
2017-12-15T06:26:54.189Z,0.00
2017-12-15T06:27:54.175Z,0.00
2017-12-15T06:28:54.158Z,0.00
2017-12-15T06:29:54.144Z,0.00
2017-12-15T06:30:54.128Z,0.00
2017-12-15T06:31:54.113Z,0.00
2017-12-15T06:32:54.101Z,0.00
2017-12-15T06:33:54.081Z,0.00
2017-12-15T06:34:54.071Z,0.00
2017-12-15T06:35:54.053Z,0.00
2017-12-15T06:36:54.036Z,0.00
2017-12-15T06:37:54.020Z,0.00
2017-12-15T06:38:54.005Z,0.00
2017-12-15T06:39:53.991Z,0.00
2017-12-15T06:40:53.974Z,0.00
2017-12-15T06:41:53.961Z,0.00
2017-12-15T06:42:53.945Z,0.00
2017-12-15T06:43:53.930Z,0.00
2017-12-15T06:44:53.914Z,0.00
2017-12-15T06:45:53.899Z,0.00
2017-12-15T06:46:53.883Z,0.00
2017-12-15T06:47:53.868Z,0.00
2017-12-15T06:48:53.854Z,0.00
2017-12-15T06:49:53.838Z,0.00
2017-12-15T06:50:53.823Z,0.00
2017-12-15T06:51:53.808Z,0.00
2017-12-15T06:52:53.792Z,0.00
2017-12-15T06:53:53.777Z,0.00
2017-12-15T06:54:53.761Z,0.00
2017-12-15T06:55:53.747Z,0.00
2017-12-15T06:56:53.730Z,0.00
2017-12-15T06:57:53.714Z,0.00
2017-12-15T06:58:53.701Z,0.00
2017-12-15T06:59:53.686Z,0.00
2017-12-15T07:00:53.670Z,0.00
2017-12-15T07:01:53.705Z,0.00
2017-12-15T07:02:53.640Z,0.00
2017-12-15T07:03:53.625Z,0.00
2017-12-15T07:04:53.607Z,0.00
2017-12-15T07:05:53.594Z,0.00
2017-12-15T07:06:53.579Z,0.00
2017-12-15T07:07:53.565Z,0.00
2017-12-15T07:08:53.548Z,0.00
2017-12-15T07:09:53.533Z,0.00
2017-12-15T07:10:53.518Z,4.00
2017-12-15T07:11:53.503Z,4.00
2017-12-15T07:12:53.487Z,4.00
2017-12-15T07:13:53.474Z,0.00
2017-12-15T07:14:53.458Z,4.00
2017-12-15T07:15:53.446Z,0.00
2017-12-15T07:16:53.427Z,4.00
2017-12-15T07:17:53.463Z,4.00
2017-12-15T07:18:53.398Z,4.00
2017-12-15T07:19:53.383Z,8.00
2017-12-15T07:20:53.367Z,4.00
2017-12-15T07:21:53.352Z,8.00
2017-12-15T07:22:53.339Z,8.00
2017-12-15T07:23:53.323Z,12.00
2017-12-15T07:24:53.311Z,12.00
2017-12-15T07:25:53.292Z,12.00
2017-12-15T07:26:53.277Z,12.00
2017-12-15T07:27:53.262Z,16.00
2017-12-15T07:28:53.246Z,16.00
2017-12-15T07:29:53.232Z,16.00
2017-12-15T07:30:53.218Z,20.00
2017-12-15T07:31:53.202Z,16.00
2017-12-15T07:32:53.187Z,24.00
2017-12-15T07:33:53.171Z,20.00
2017-12-15T07:34:53.157Z,24.00
2017-12-15T07:35:53.142Z,24.00
2017-12-15T07:36:53.128Z,32.00
2017-12-15T07:37:53.113Z,32.00
2017-12-15T07:38:53.096Z,36.00
2017-12-15T07:39:53.083Z,40.00
2017-12-15T07:40:53.067Z,44.00
2017-12-15T07:41:53.051Z,44.00
2017-12-15T07:42:53.037Z,48.00
2017-12-15T07:43:53.022Z,52.00
2017-12-15T07:44:53.006Z,48.00
2017-12-15T07:45:52.991Z,56.00
2017-12-15T07:46:52.976Z,52.00
2017-12-15T07:47:52.962Z,52.00
2017-12-15T07:48:52.946Z,56.00
2017-12-15T07:49:52.932Z,56.00
2017-12-15T07:50:52.933Z,60.00
2017-12-15T07:51:52.903Z,68.00
2017-12-15T07:52:52.886Z,72.00
2017-12-15T07:53:52.871Z,72.00
2017-12-15T07:54:52.858Z,80.00
2017-12-15T07:55:52.842Z,80.00
2017-12-15T07:56:52.827Z,88.00
2017-12-15T07:57:52.812Z,88.00
2017-12-15T07:58:52.797Z,88.00
2017-12-15T07:59:52.782Z,88.00
2017-12-15T08:00:52.768Z,92.00
2017-12-15T08:01:52.753Z,96.00
2017-12-15T08:02:52.738Z,96.00
2017-12-15T08:03:52.723Z,96.00
2017-12-15T08:04:52.708Z,96.00
2017-12-15T08:05:52.693Z,100.00
2017-12-15T08:06:52.678Z,96.00
2017-12-15T08:07:52.663Z,100.00
2017-12-15T08:08:52.651Z,104.00
2017-12-15T08:09:52.635Z,108.00
2017-12-15T08:10:52.618Z,112.00
2017-12-15T08:11:52.605Z,116.00
2017-12-15T08:12:52.593Z,124.00
2017-12-15T08:13:52.572Z,128.00
2017-12-15T08:14:52.559Z,140.00
2017-12-15T08:15:52.545Z,132.00
2017-12-15T08:16:52.529Z,144.00
2017-12-15T08:17:52.515Z,144.00
2017-12-15T08:18:52.502Z,152.00
2017-12-15T08:19:52.485Z,160.00
2017-12-15T08:20:52.469Z,168.00
2017-12-15T08:21:52.455Z,184.00
2017-12-15T08:22:52.439Z,204.00
2017-12-15T08:23:52.425Z,212.00
2017-12-15T08:24:52.409Z,220.00
2017-12-15T08:25:52.394Z,232.00
2017-12-15T08:26:52.379Z,244.00
2017-12-15T08:27:52.365Z,228.00
2017-12-15T08:28:52.349Z,240.00
2017-12-15T08:29:52.334Z,252.00
2017-12-15T08:30:52.320Z,232.00
2017-12-15T08:31:52.305Z,232.00
2017-12-15T08:32:52.288Z,232.00
2017-12-15T08:33:52.275Z,240.00
2017-12-15T08:34:52.259Z,248.00
2017-12-15T08:35:52.244Z,264.00
2017-12-15T08:36:52.228Z,276.00
2017-12-15T08:37:52.214Z,292.00
2017-12-15T08:38:52.200Z,312.00
2017-12-15T08:39:52.191Z,324.00
2017-12-15T08:40:52.169Z,332.00
2017-12-15T08:41:52.160Z,328.00
2017-12-15T08:42:52.140Z,340.00
2017-12-15T08:43:52.126Z,380.00
2017-12-15T08:44:52.110Z,380.00
2017-12-15T08:45:52.094Z,388.00
2017-12-15T08:46:52.079Z,412.00
2017-12-15T08:47:52.066Z,428.00
2017-12-15T08:48:52.067Z,460.00
2017-12-15T08:49:52.034Z,480.00
2017-12-15T08:50:52.020Z,452.00
2017-12-15T08:51:52.005Z,464.00
2017-12-15T08:52:51.991Z,528.00
2017-12-15T08:53:51.980Z,568.00
2017-12-15T08:54:51.960Z,560.00
2017-12-15T08:55:51.956Z,548.00
2017-12-15T08:56:51.930Z,508.00
2017-12-15T08:57:51.915Z,480.00
2017-12-15T08:58:51.901Z,512.00
2017-12-15T08:59:51.885Z,524.00
2017-12-15T09:00:51.870Z,516.00
2017-12-15T09:01:51.856Z,512.00
2017-12-15T09:02:51.840Z,492.00
2017-12-15T09:03:51.825Z,484.00
2017-12-15T09:04:51.811Z,492.00
2017-12-15T09:05:51.796Z,536.00
2017-12-15T09:06:51.781Z,508.00
2017-12-15T09:07:51.766Z,520.00
2017-12-15T09:08:51.754Z,540.00
2017-12-15T09:09:51.737Z,504.00
2017-12-15T09:10:51.721Z,500.00
2017-12-15T09:11:51.707Z,548.00
2017-12-15T09:12:51.694Z,572.00
2017-12-15T09:13:51.679Z,636.00
2017-12-15T09:14:51.663Z,620.00
2017-12-15T09:15:51.647Z,612.00
2017-12-15T09:16:51.632Z,576.00
2017-12-15T09:17:51.618Z,524.00
2017-12-15T09:18:51.607Z,524.00
2017-12-15T09:19:51.590Z,532.00
2017-12-15T09:20:51.574Z,552.00
2017-12-15T09:21:51.560Z,572.00
2017-12-15T09:22:51.545Z,592.00
2017-12-15T09:23:51.531Z,604.00
2017-12-15T09:24:51.517Z,616.00
2017-12-15T09:25:51.500Z,652.00
2017-12-15T09:26:51.486Z,736.00
2017-12-15T09:27:51.470Z,668.00
2017-12-15T09:28:51.456Z,624.00
2017-12-15T09:29:51.442Z,628.00
2017-12-15T09:30:51.426Z,632.00
2017-12-15T09:31:51.413Z,624.00
2017-12-15T09:32:51.397Z,624.00
2017-12-15T09:33:51.382Z,616.00
2017-12-15T09:34:51.368Z,616.00
2017-12-15T09:35:51.358Z,564.00
2017-12-15T09:36:51.338Z,524.00
2017-12-15T09:37:51.323Z,564.00
2017-12-15T09:38:51.309Z,600.00
2017-12-15T09:39:51.294Z,560.00
2017-12-15T09:40:51.279Z,596.00
2017-12-15T09:41:51.263Z,680.00
2017-12-15T09:42:51.250Z,740.00
2017-12-15T09:43:51.240Z,672.00
2017-12-15T09:44:51.219Z,596.00
2017-12-15T09:45:51.204Z,624.00
2017-12-15T09:46:51.190Z,664.00
2017-12-15T09:47:51.176Z,632.00
2017-12-15T09:48:51.161Z,628.00
2017-12-15T09:49:51.147Z,640.00
2017-12-15T09:50:51.132Z,624.00
2017-12-15T09:51:51.117Z,608.00
2017-12-15T09:52:51.103Z,624.00
2017-12-15T09:53:51.088Z,636.00
2017-12-15T09:54:51.073Z,652.00
2017-12-15T09:55:51.059Z,660.00
2017-12-15T09:56:51.044Z,604.00
2017-12-15T09:57:51.028Z,600.00
2017-12-15T09:58:51.013Z,624.00
2017-12-15T09:59:50.999Z,680.00
2017-12-15T10:00:50.984Z,688.00
2017-12-15T10:01:50.971Z,668.00
2017-12-15T10:02:50.957Z,632.00
2017-12-15T10:03:50.941Z,604.00
2017-12-15T10:04:50.924Z,556.00
2017-12-15T10:05:50.910Z,536.00
2017-12-15T10:06:50.895Z,568.00
2017-12-15T10:07:50.881Z,576.00
2017-12-15T10:08:50.865Z,600.00
2017-12-15T10:09:50.851Z,684.00
2017-12-15T10:10:50.837Z,716.00
2017-12-15T10:11:50.823Z,652.00
2017-12-15T10:12:50.807Z,644.00
2017-12-15T10:13:50.791Z,656.00
2017-12-15T10:14:50.777Z,712.00
2017-12-15T10:15:50.763Z,776.00
2017-12-15T10:16:50.748Z,852.00
2017-12-15T10:17:50.732Z,832.00
2017-12-15T10:18:50.718Z,760.00
2017-12-15T10:19:50.704Z,776.00
2017-12-15T10:20:50.687Z,820.00
2017-12-15T10:21:50.674Z,844.00
2017-12-15T10:22:50.660Z,836.00
2017-12-15T10:23:50.645Z,844.00
2017-12-15T10:24:50.629Z,884.00
2017-12-15T10:25:50.615Z,972.00
2017-12-15T10:26:50.601Z,1136.00
2017-12-15T10:27:50.586Z,1148.00
2017-12-15T10:28:50.570Z,1200.00
2017-12-15T10:29:50.558Z,1336.00
2017-12-15T10:30:50.542Z,1352.00
2017-12-15T10:31:50.527Z,1312.00
2017-12-15T10:32:50.511Z,1408.00
2017-12-15T10:33:50.496Z,1432.00
2017-12-15T10:34:50.482Z,1388.00
2017-12-15T10:35:50.468Z,1292.00
2017-12-15T10:36:50.453Z,1208.00
2017-12-15T10:37:50.442Z,1128.00
2017-12-15T10:38:50.424Z,1168.00
2017-12-15T10:39:50.408Z,1144.00
2017-12-15T10:40:50.393Z,992.00
2017-12-15T10:41:50.383Z,932.00
2017-12-15T10:42:50.364Z,876.00
2017-12-15T10:43:50.350Z,912.00
2017-12-15T10:44:50.334Z,988.00
2017-12-15T10:45:50.320Z,1040.00
2017-12-15T10:46:50.305Z,1068.00
2017-12-15T10:47:50.291Z,1036.00
2017-12-15T10:48:50.276Z,932.00
2017-12-15T10:49:50.261Z,848.00
2017-12-15T10:50:50.246Z,768.00
2017-12-15T10:51:50.232Z,752.00
2017-12-15T10:52:50.297Z,788.00
2017-12-15T10:53:50.204Z,820.00
2017-12-15T10:54:50.188Z,808.00
2017-12-15T10:55:50.173Z,792.00
2017-12-15T10:56:50.157Z,772.00
2017-12-15T10:57:50.144Z,752.00
2017-12-15T10:58:50.129Z,756.00
2017-12-15T10:59:50.114Z,756.00
2017-12-15T11:00:50.099Z,760.00
2017-12-15T11:01:50.085Z,776.00
2017-12-15T11:02:50.069Z,808.00
2017-12-15T11:03:50.057Z,916.00
2017-12-15T11:04:50.039Z,1096.00
2017-12-15T11:05:50.032Z,1256.00
2017-12-15T11:06:50.012Z,1260.00
2017-12-15T11:07:49.996Z,1244.00
2017-12-15T11:08:49.980Z,1200.00
2017-12-15T11:09:49.966Z,1132.00
2017-12-15T11:10:49.951Z,1096.00
2017-12-15T11:11:49.938Z,1072.00
2017-12-15T11:12:49.934Z,1084.00
2017-12-15T11:13:49.907Z,1080.00
2017-12-15T11:14:49.892Z,1004.00
2017-12-15T11:15:49.879Z,920.00
2017-12-15T11:16:49.863Z,848.00
2017-12-15T11:17:49.849Z,864.00
2017-12-15T11:18:49.834Z,924.00
2017-12-15T11:19:49.820Z,984.00
2017-12-15T11:20:49.810Z,1032.00
2017-12-15T11:21:49.789Z,1064.00
2017-12-15T11:22:49.774Z,1048.00
2017-12-15T11:23:49.760Z,1064.00
2017-12-15T11:24:49.745Z,1132.00
2017-12-15T11:25:49.730Z,1164.00
2017-12-15T11:26:49.720Z,1176.00
2017-12-15T11:27:49.701Z,1168.00
2017-12-15T11:28:49.687Z,1108.00
2017-12-15T11:29:49.671Z,1028.00
2017-12-15T11:30:49.656Z,900.00
2017-12-15T11:31:49.643Z,804.00
2017-12-15T11:32:49.627Z,800.00
2017-12-15T11:33:49.613Z,816.00
2017-12-15T11:34:49.600Z,832.00
2017-12-15T11:35:49.584Z,828.00
2017-12-15T11:36:49.569Z,804.00
2017-12-15T11:37:49.555Z,816.00
2017-12-15T11:38:49.539Z,840.00
2017-12-15T11:39:49.525Z,852.00
2017-12-15T11:40:49.510Z,852.00
2017-12-15T11:41:49.497Z,896.00
2017-12-15T11:42:49.480Z,1000.00
2017-12-15T11:43:49.466Z,1032.00
2017-12-15T11:44:49.451Z,1052.00
2017-12-15T11:45:49.436Z,1048.00
2017-12-15T11:46:49.422Z,1028.00
2017-12-15T11:47:49.406Z,1060.00
2017-12-15T11:48:49.391Z,1112.00
2017-12-15T11:49:49.377Z,1156.00
2017-12-15T11:50:49.361Z,1128.00
2017-12-15T11:51:49.347Z,1084.00
2017-12-15T11:52:49.332Z,1040.00
2017-12-15T11:53:49.318Z,1028.00
2017-12-15T11:54:49.304Z,1036.00
2017-12-15T11:55:49.289Z,1088.00
2017-12-15T11:56:49.272Z,1076.00
2017-12-15T11:57:49.257Z,1044.00
2017-12-15T11:58:49.245Z,1000.00
2017-12-15T11:59:49.230Z,944.00
2017-12-15T12:00:49.214Z,896.00
2017-12-15T12:01:49.200Z,856.00
2017-12-15T12:02:49.185Z,868.00
2017-12-15T12:03:49.176Z,876.00
2017-12-15T12:04:49.154Z,856.00
2017-12-15T12:05:49.141Z,812.00
2017-12-15T12:06:49.126Z,772.00
2017-12-15T12:07:49.115Z,748.00
2017-12-15T12:08:49.096Z,740.00
2017-12-15T12:09:49.080Z,716.00
2017-12-15T12:10:49.066Z,676.00
2017-12-15T12:11:49.052Z,656.00
2017-12-15T12:12:49.037Z,656.00
2017-12-15T12:13:49.022Z,684.00
2017-12-15T12:14:49.007Z,704.00
2017-12-15T12:15:48.994Z,732.00
2017-12-15T12:16:48.976Z,752.00
2017-12-15T12:17:48.965Z,792.00
2017-12-15T12:18:48.949Z,816.00
2017-12-15T12:19:48.933Z,752.00
2017-12-15T12:20:48.918Z,708.00
2017-12-15T12:21:48.904Z,700.00
2017-12-15T12:22:48.888Z,692.00
2017-12-15T12:23:48.875Z,708.00
2017-12-15T12:24:48.859Z,768.00
2017-12-15T12:25:48.844Z,796.00
2017-12-15T12:26:48.830Z,840.00
2017-12-15T12:27:48.817Z,896.00
2017-12-15T12:28:48.800Z,852.00
2017-12-15T12:29:48.784Z,808.00
2017-12-15T12:30:48.770Z,796.00
2017-12-15T12:31:48.756Z,776.00
2017-12-15T12:32:48.739Z,752.00
2017-12-15T12:33:48.725Z,724.00
2017-12-15T12:34:48.711Z,688.00
2017-12-15T12:35:48.697Z,648.00
2017-12-15T12:36:48.680Z,624.00
2017-12-15T12:37:48.666Z,588.00
2017-12-15T12:38:48.651Z,556.00
2017-12-15T12:39:48.637Z,520.00
2017-12-15T12:40:48.622Z,520.00
2017-12-15T12:41:48.609Z,496.00
2017-12-15T12:42:48.591Z,492.00
2017-12-15T12:43:48.577Z,468.00
2017-12-15T12:44:48.564Z,452.00
2017-12-15T12:45:48.547Z,448.00
2017-12-15T12:46:48.533Z,448.00
2017-12-15T12:47:48.519Z,456.00
2017-12-15T12:48:48.503Z,456.00
2017-12-15T12:49:48.489Z,464.00
2017-12-15T12:50:48.473Z,440.00
2017-12-15T12:51:48.460Z,432.00
2017-12-15T12:52:48.444Z,440.00
2017-12-15T12:53:48.429Z,440.00
2017-12-15T12:54:48.415Z,448.00